sensor_id;sensor_type;location;lat;lon;timestamp;pressure;altitude;pressure_sealevel;temperature;humidity
59493;BME280;45497;43.996;22.876;2023-02-15T00:01:50;102696.06;;;5.54;48.47
59493;BME280;45497;43.996;22.876;2023-02-15T00:04:20;102705.94;;;5.50;49.00
59493;BME280;45497;43.996;22.876;2023-02-15T00:06:46;102699.50;;;5.40;48.87
59493;BME280;45497;43.996;22.876;2023-02-15T00:09:11;102720.88;;;5.50;48.92
59493;BME280;45497;43.996;22.876;2023-02-15T00:11:37;102714.00;;;5.47;48.67
59493;BME280;45497;43.996;22.876;2023-02-15T00:14:27;102713.16;;;5.47;48.95
59493;BME280;45497;43.996;22.876;2023-02-15T00:16:53;102715.88;;;5.45;48.82
59493;BME280;45497;43.996;22.876;2023-02-15T00:19:20;102721.78;;;5.49;48.65
59493;BME280;45497;43.996;22.876;2023-02-15T00:21:47;102716.13;;;5.41;48.78
59493;BME280;45497;43.996;22.876;2023-02-15T00:24:14;102722.16;;;5.43;48.79
59493;BME280;45497;43.996;22.876;2023-02-15T00:26:41;102720.38;;;5.43;49.06
59493;BME280;45497;43.996;22.876;2023-02-15T00:29:08;102725.22;;;5.35;48.85
59493;BME280;45497;43.996;22.876;2023-02-15T00:31:35;102734.78;;;5.36;48.83
59493;BME280;45497;43.996;22.876;2023-02-15T00:34:24;102730.56;;;5.33;48.92
59493;BME280;45497;43.996;22.876;2023-02-15T00:36:50;102726.66;;;5.41;49.11
59493;BME280;45497;43.996;22.876;2023-02-15T00:39:16;102723.00;;;5.43;48.74
59493;BME280;45497;43.996;22.876;2023-02-15T00:41:42;102715.94;;;5.44;48.98
59493;BME280;45497;43.996;22.876;2023-02-15T00:44:08;102724.25;;;5.52;48.72
59493;BME280;45497;43.996;22.876;2023-02-15T00:46:34;102720.28;;;5.45;48.98
59493;BME280;45497;43.996;22.876;2023-02-15T00:49:00;102730.44;;;5.51;48.97
59493;BME280;45497;43.996;22.876;2023-02-15T00:51:26;102719.25;;;5.47;49.04
59493;BME280;45497;43.996;22.876;2023-02-15T00:53:51;102728.25;;;5.59;48.65
59493;BME280;45497;43.996;22.876;2023-02-15T00:56:17;102729.28;;;5.57;48.61
59493;BME280;45497;43.996;22.876;2023-02-15T00:58:42;102730.88;;;5.59;48.36
59493;BME280;45497;43.996;22.876;2023-02-15T01:01:10;102725.69;;;5.58;48.63
59493;BME280;45497;43.996;22.876;2023-02-15T01:03:36;102726.38;;;5.61;48.71
59493;BME280;45497;43.996;22.876;2023-02-15T01:06:02;102726.06;;;5.51;48.36
59493;BME280;45497;43.996;22.876;2023-02-15T01:08:28;102716.06;;;5.42;48.75
59493;BME280;45497;43.996;22.876;2023-02-15T01:10:53;102717.66;;;5.45;48.47
59493;BME280;45497;43.996;22.876;2023-02-15T01:13:19;102721.13;;;5.45;48.33
59493;BME280;45497;43.996;22.876;2023-02-15T01:15:45;102718.50;;;5.45;48.63
59493;BME280;45497;43.996;22.876;2023-02-15T01:18:11;102713.00;;;5.34;48.90
59493;BME280;45497;43.996;22.876;2023-02-15T01:20:38;102726.06;;;5.35;48.69
59493;BME280;45497;43.996;22.876;2023-02-15T01:23:05;102720.66;;;5.39;48.55
59493;BME280;45497;43.996;22.876;2023-02-15T01:25:33;102719.63;;;5.41;48.38
59493;BME280;45497;43.996;22.876;2023-02-15T01:27:58;102734.63;;;5.39;48.73
59493;BME280;45497;43.996;22.876;2023-02-15T01:30:24;102731.25;;;5.37;48.50
59493;BME280;45497;43.996;22.876;2023-02-15T01:32:49;102728.03;;;5.32;48.61
59493;BME280;45497;43.996;22.876;2023-02-15T01:35:15;102731.56;;;5.31;49.39
59493;BME280;45497;43.996;22.876;2023-02-15T01:37:40;102714.44;;;5.40;48.78
59493;BME280;45497;43.996;22.876;2023-02-15T01:40:08;102718.78;;;5.41;48.94
59493;BME280;45497;43.996;22.876;2023-02-15T01:42:37;102726.75;;;5.39;49.13
59493;BME280;45497;43.996;22.876;2023-02-15T01:45:05;102718.09;;;5.37;49.13
59493;BME280;45497;43.996;22.876;2023-02-15T01:47:49;102727.25;;;5.30;49.40
59493;BME280;45497;43.996;22.876;2023-02-15T01:50:21;102718.03;;;5.23;49.51
59493;BME280;45497;43.996;22.876;2023-02-15T01:52:57;102714.13;;;5.14;49.61
59493;BME280;45497;43.996;22.876;2023-02-15T01:55:27;102721.75;;;5.03;49.70
59493;BME280;45497;43.996;22.876;2023-02-15T01:57:54;102719.22;;;5.01;49.96
59493;BME280;45497;43.996;22.876;2023-02-15T02:00:20;102725.22;;;5.03;50.08
59493;BME280;45497;43.996;22.876;2023-02-15T02:02:48;102723.53;;;4.86;50.26
59493;BME280;45497;43.996;22.876;2023-02-15T02:05:14;102719.00;;;4.72;50.92
59493;BME280;45497;43.996;22.876;2023-02-15T02:07:43;102715.94;;;4.64;50.90
59493;BME280;45497;43.996;22.876;2023-02-15T02:10:20;102721.25;;;4.63;51.39
59493;BME280;45497;43.996;22.876;2023-02-15T02:12:47;102720.56;;;4.59;51.19
59493;BME280;45497;43.996;22.876;2023-02-15T02:15:14;102708.69;;;4.52;51.58
59493;BME280;45497;43.996;22.876;2023-02-15T02:17:56;102716.13;;;4.61;51.16
59493;BME280;45497;43.996;22.876;2023-02-15T02:20:30;102717.88;;;4.60;51.10
59493;BME280;45497;43.996;22.876;2023-02-15T02:34:16;102728.31;;;4.62;51.23
59493;BME280;45497;43.996;22.876;2023-02-15T02:42:12;102725.81;;;4.59;51.05
59493;BME280;45497;43.996;22.876;2023-02-15T02:45:16;102728.56;;;4.57;51.03
59493;BME280;45497;43.996;22.876;2023-02-15T02:47:40;102725.31;;;4.52;51.13
59493;BME280;45497;43.996;22.876;2023-02-15T02:50:12;102726.38;;;4.48;51.48
59493;BME280;45497;43.996;22.876;2023-02-15T02:52:44;102723.19;;;4.43;51.24
59493;BME280;45497;43.996;22.876;2023-02-15T02:58:13;102725.28;;;4.36;51.88
59493;BME280;45497;43.996;22.876;2023-02-15T03:00:45;102722.66;;;4.36;51.53
59493;BME280;45497;43.996;22.876;2023-02-15T03:03:15;102717.53;;;4.33;52.01
59493;BME280;45497;43.996;22.876;2023-02-15T03:05:45;102724.31;;;4.37;51.83
59493;BME280;45497;43.996;22.876;2023-02-15T03:08:14;102734.59;;;4.42;51.93
59493;BME280;45497;43.996;22.876;2023-02-15T03:10:47;102737.16;;;4.44;51.77
59493;BME280;45497;43.996;22.876;2023-02-15T03:13:14;102739.94;;;4.40;51.87
59493;BME280;45497;43.996;22.876;2023-02-15T03:15:41;102744.97;;;4.45;51.81
59493;BME280;45497;43.996;22.876;2023-02-15T03:18:30;102747.50;;;4.47;51.23
59493;BME280;45497;43.996;22.876;2023-02-15T03:21:01;102744.19;;;4.43;51.44
59493;BME280;45497;43.996;22.876;2023-02-15T03:23:29;102744.09;;;4.45;51.64
59493;BME280;45497;43.996;22.876;2023-02-15T03:25:59;102741.66;;;4.42;51.82
59493;BME280;45497;43.996;22.876;2023-02-15T03:28:30;102743.84;;;4.49;51.61
59493;BME280;45497;43.996;22.876;2023-02-15T03:31:00;102740.13;;;4.53;51.51
59493;BME280;45497;43.996;22.876;2023-02-15T03:33:27;102738.19;;;4.57;51.62
59493;BME280;45497;43.996;22.876;2023-02-15T03:38:36;102737.88;;;4.63;51.35
59493;BME280;45497;43.996;22.876;2023-02-15T03:41:04;102741.34;;;4.64;51.13
59493;BME280;45497;43.996;22.876;2023-02-15T03:44:00;102732.88;;;4.58;51.35
59493;BME280;45497;43.996;22.876;2023-02-15T03:46:46;102730.72;;;4.49;51.66
59493;BME280;45497;43.996;22.876;2023-02-15T03:49:20;102727.94;;;4.52;51.45
59493;BME280;45497;43.996;22.876;2023-02-15T03:51:48;102741.91;;;4.53;51.68
59493;BME280;45497;43.996;22.876;2023-02-15T03:54:25;102747.31;;;4.50;51.44
59493;BME280;45497;43.996;22.876;2023-02-15T03:57:34;102742.06;;;4.50;51.45
59493;BME280;45497;43.996;22.876;2023-02-15T04:00:24;102748.28;;;4.49;51.91
59493;BME280;45497;43.996;22.876;2023-02-15T04:05:42;102754.28;;;4.51;51.74
59493;BME280;45497;43.996;22.876;2023-02-15T04:08:08;102751.41;;;4.55;51.71
59493;BME280;45497;43.996;22.876;2023-02-15T04:10:34;102750.91;;;4.49;51.62
59493;BME280;45497;43.996;22.876;2023-02-15T04:13:22;102752.75;;;4.47;52.21
59493;BME280;45497;43.996;22.876;2023-02-15T04:15:48;102756.16;;;4.49;51.85
59493;BME280;45497;43.996;22.876;2023-02-15T04:18:35;102755.91;;;4.53;51.97
59493;BME280;45497;43.996;22.876;2023-02-15T04:21:20;102758.38;;;4.56;51.95
59493;BME280;45497;43.996;22.876;2023-02-15T04:24:05;102756.50;;;4.58;51.48
59493;BME280;45497;43.996;22.876;2023-02-15T04:26:50;102756.19;;;4.65;51.19
59493;BME280;45497;43.996;22.876;2023-02-15T04:29:21;102750.94;;;4.65;51.63
59493;BME280;45497;43.996;22.876;2023-02-15T04:31:47;102751.03;;;4.63;51.41
59493;BME280;45497;43.996;22.876;2023-02-15T04:34:13;102748.69;;;4.57;51.81
59493;BME280;45497;43.996;22.876;2023-02-15T04:36:39;102758.03;;;4.63;51.61
59493;BME280;45497;43.996;22.876;2023-02-15T04:39:05;102745.00;;;4.61;51.44
59493;BME280;45497;43.996;22.876;2023-02-15T04:41:32;102758.81;;;4.65;51.30
59493;BME280;45497;43.996;22.876;2023-02-15T04:43:58;102748.78;;;4.55;52.14
59493;BME280;45497;43.996;22.876;2023-02-15T04:46:24;102745.00;;;4.61;51.43
59493;BME280;45497;43.996;22.876;2023-02-15T04:48:50;102751.94;;;4.62;51.73
59493;BME280;45497;43.996;22.876;2023-02-15T04:51:15;102743.28;;;4.60;51.80
59493;BME280;45497;43.996;22.876;2023-02-15T04:53:41;102751.88;;;4.64;51.88
59493;BME280;45497;43.996;22.876;2023-02-15T04:56:07;102751.94;;;4.62;51.61
59493;BME280;45497;43.996;22.876;2023-02-15T04:58:32;102752.97;;;4.59;51.98
59493;BME280;45497;43.996;22.876;2023-02-15T05:00:58;102756.50;;;4.58;51.81
59493;BME280;45497;43.996;22.876;2023-02-15T05:03:23;102766.03;;;4.61;51.73
59493;BME280;45497;43.996;22.876;2023-02-15T05:05:49;102754.03;;;4.55;52.05
59493;BME280;45497;43.996;22.876;2023-02-15T05:08:14;102757.34;;;4.59;51.94
59493;BME280;45497;43.996;22.876;2023-02-15T05:10:40;102752.88;;;4.61;51.93
59493;BME280;45497;43.996;22.876;2023-02-15T05:13:05;102765.00;;;4.64;52.00
59493;BME280;45497;43.996;22.876;2023-02-15T05:15:31;102760.59;;;4.64;51.73
59493;BME280;45497;43.996;22.876;2023-02-15T05:17:58;102758.97;;;4.62;52.04
59493;BME280;45497;43.996;22.876;2023-02-15T05:20:24;102766.03;;;4.61;52.06
59493;BME280;45497;43.996;22.876;2023-02-15T05:22:53;102758.38;;;4.56;51.96
59493;BME280;45497;43.996;22.876;2023-02-15T05:25:18;102768.03;;;4.56;52.23
59493;BME280;45497;43.996;22.876;2023-02-15T05:28:03;102755.13;;;4.51;52.57
59493;BME280;45497;43.996;22.876;2023-02-15T05:33:30;102748.97;;;4.52;52.08
59493;BME280;45497;43.996;22.876;2023-02-15T05:35:56;102770.66;;;4.56;52.35
59493;BME280;45497;43.996;22.876;2023-02-15T05:38:21;102765.56;;;4.53;52.18
59493;BME280;45497;43.996;22.876;2023-02-15T05:40:47;102760.31;;;4.53;52.30
59493;BME280;45497;43.996;22.876;2023-02-15T05:43:12;102771.44;;;4.58;52.38
59493;BME280;45497;43.996;22.876;2023-02-15T05:45:38;102763.63;;;4.56;52.34
59493;BME280;45497;43.996;22.876;2023-02-15T05:48:03;102772.19;;;4.60;52.09
59493;BME280;45497;43.996;22.876;2023-02-15T05:50:29;102785.00;;;4.66;52.22
59493;BME280;45497;43.996;22.876;2023-02-15T05:52:54;102774.06;;;4.58;52.41
59493;BME280;45497;43.996;22.876;2023-02-15T05:55:20;102779.91;;;4.63;52.44
59493;BME280;45497;43.996;22.876;2023-02-15T05:57:45;102780.75;;;4.64;52.14
59493;BME280;45497;43.996;22.876;2023-02-15T06:00:12;102788.06;;;4.74;52.45
59493;BME280;45497;43.996;22.876;2023-02-15T06:02:39;102782.06;;;4.72;52.08
59493;BME280;45497;43.996;22.876;2023-02-15T06:05:06;102788.16;;;4.73;52.76
59493;BME280;45497;43.996;22.876;2023-02-15T06:07:32;102787.59;;;4.84;51.97
59493;BME280;45497;43.996;22.876;2023-02-15T06:09:58;102798.03;;;4.85;52.02
59493;BME280;45497;43.996;22.876;2023-02-15T06:12:24;102791.59;;;4.91;52.13
59493;BME280;45497;43.996;22.876;2023-02-15T06:14:49;102789.34;;;5.01;51.69
59493;BME280;45497;43.996;22.876;2023-02-15T06:17:15;102785.84;;;5.00;51.92
59493;BME280;45497;43.996;22.876;2023-02-15T06:19:42;102791.53;;;5.08;52.15
59493;BME280;45497;43.996;22.876;2023-02-15T06:22:07;102794.00;;;5.11;51.83
59493;BME280;45497;43.996;22.876;2023-02-15T06:24:33;102794.00;;;5.11;51.64
59493;BME280;45497;43.996;22.876;2023-02-15T06:26:58;102782.31;;;5.17;52.00
59493;BME280;45497;43.996;22.876;2023-02-15T06:29:24;102790.69;;;5.40;51.70
59493;BME280;45497;43.996;22.876;2023-02-15T06:31:49;102786.56;;;5.35;51.70
59493;BME280;45497;43.996;22.876;2023-02-15T06:34:15;102789.19;;;5.35;51.84
59493;BME280;45497;43.996;22.876;2023-02-15T06:36:41;102787.41;;;5.36;51.55
59493;BME280;45497;43.996;22.876;2023-02-15T06:39:06;102787.47;;;5.34;52.00
59493;BME280;45497;43.996;22.876;2023-02-15T06:41:32;102784.44;;;5.42;52.01
59493;BME280;45497;43.996;22.876;2023-02-15T06:43:57;102783.41;;;5.45;52.06
59493;BME280;45497;43.996;22.876;2023-02-15T06:46:23;102777.03;;;5.49;51.94
59493;BME280;45497;43.996;22.876;2023-02-15T06:48:48;102787.91;;;5.59;51.77
59493;BME280;45497;43.996;22.876;2023-02-15T06:51:14;102777.78;;;5.67;51.97
59493;BME280;45497;43.996;22.876;2023-02-15T06:53:39;102788.97;;;5.70;52.00
59493;BME280;45497;43.996;22.876;2023-02-15T06:56:08;102791.28;;;5.77;51.46
59493;BME280;45497;43.996;22.876;2023-02-15T06:58:41;102786.34;;;5.86;51.38
59493;BME280;45497;43.996;22.876;2023-02-15T07:01:08;102792.34;;;6.04;51.59
59493;BME280;45497;43.996;22.876;2023-02-15T07:03:34;102789.84;;;6.17;51.41
59493;BME280;45497;43.996;22.876;2023-02-15T07:06:02;102788.63;;;6.23;50.83
59493;BME280;45497;43.996;22.876;2023-02-15T07:08:28;102790.75;;;6.32;51.31
59493;BME280;45497;43.996;22.876;2023-02-15T07:10:55;102788.66;;;6.37;50.96
59493;BME280;45497;43.996;22.876;2023-02-15T07:13:40;102794.91;;;6.50;50.84
59493;BME280;45497;43.996;22.876;2023-02-15T07:16:08;102787.59;;;6.56;50.48
59493;BME280;45497;43.996;22.876;2023-02-15T07:18:34;102787.78;;;6.67;50.40
59493;BME280;45497;43.996;22.876;2023-02-15T07:20:59;102790.41;;;6.81;50.44
59493;BME280;45497;43.996;22.876;2023-02-15T07:23:25;102792.56;;;6.89;50.61
59493;BME280;45497;43.996;22.876;2023-02-15T07:25:57;102783.72;;;6.90;50.27
59493;BME280;45497;43.996;22.876;2023-02-15T07:28:22;102789.84;;;7.05;50.21
59493;BME280;45497;43.996;22.876;2023-02-15T07:30:48;102781.63;;;7.24;50.18
59493;BME280;45497;43.996;22.876;2023-02-15T07:33:13;102781.63;;;7.24;49.97
59493;BME280;45497;43.996;22.876;2023-02-15T07:35:52;102782.06;;;7.31;50.14
59493;BME280;45497;43.996;22.876;2023-02-15T07:38:18;102781.47;;;7.40;49.84
59493;BME280;45497;43.996;22.876;2023-02-15T07:40:44;102773.34;;;7.57;50.32
59493;BME280;45497;43.996;22.876;2023-02-15T07:43:10;102777.53;;;7.74;49.55
59493;BME280;45497;43.996;22.876;2023-02-15T07:45:36;102778.69;;;7.83;49.24
59493;BME280;45497;43.996;22.876;2023-02-15T07:48:02;102771.00;;;7.80;48.77
59493;BME280;45497;43.996;22.876;2023-02-15T07:50:28;102767.34;;;7.68;48.51
59493;BME280;45497;43.996;22.876;2023-02-15T07:52:54;102766.19;;;7.72;48.56
59493;BME280;45497;43.996;22.876;2023-02-15T07:55:20;102767.44;;;7.66;48.09
59493;BME280;45497;43.996;22.876;2023-02-15T07:57:47;102766.50;;;7.68;48.28
59493;BME280;45497;43.996;22.876;2023-02-15T08:00:15;102759.88;;;7.75;47.43
59493;BME280;45497;43.996;22.876;2023-02-15T08:02:42;102762.78;;;7.97;47.77
59493;BME280;45497;43.996;22.876;2023-02-15T08:05:12;102764.47;;;7.98;46.89
59493;BME280;45497;43.996;22.876;2023-02-15T08:07:37;102763.84;;;7.95;47.34
59493;BME280;45497;43.996;22.876;2023-02-15T08:10:03;102762.06;;;8.08;47.18
59493;BME280;45497;43.996;22.876;2023-02-15T08:12:29;102763.88;;;8.33;46.57
59493;BME280;45497;43.996;22.876;2023-02-15T08:14:54;102760.97;;;8.51;46.18
59493;BME280;45497;43.996;22.876;2023-02-15T08:17:20;102765.09;;;8.55;46.23
59493;BME280;45497;43.996;22.876;2023-02-15T08:19:45;102767.31;;;8.61;46.15
59493;BME280;45497;43.996;22.876;2023-02-15T08:22:13;102766.59;;;8.59;46.05
59493;BME280;45497;43.996;22.876;2023-02-15T08:24:39;102764.88;;;8.58;45.46
59493;BME280;45497;43.996;22.876;2023-02-15T08:27:07;102764.34;;;8.66;45.03
59493;BME280;45497;43.996;22.876;2023-02-15T08:29:35;102762.66;;;8.77;45.46
59493;BME280;45497;43.996;22.876;2023-02-15T08:32:09;102761.66;;;9.04;45.38
59493;BME280;45497;43.996;22.876;2023-02-15T08:34:40;102763.34;;;9.05;44.57
59493;BME280;45497;43.996;22.876;2023-02-15T08:37:06;102751.47;;;9.11;44.30
59493;BME280;45497;43.996;22.876;2023-02-15T08:39:31;102751.22;;;9.27;44.55
59493;BME280;45497;43.996;22.876;2023-02-15T08:41:57;102748.97;;;9.09;43.59
59493;BME280;45497;43.996;22.876;2023-02-15T08:44:23;102740.09;;;9.22;45.96
59493;BME280;45497;43.996;22.876;2023-02-15T08:46:49;102748.75;;;9.36;44.17
59493;BME280;45497;43.996;22.876;2023-02-15T08:49:17;102746.06;;;9.49;44.35
59493;BME280;45497;43.996;22.876;2023-02-15T08:51:43;102748.69;;;9.49;43.48
59493;BME280;45497;43.996;22.876;2023-02-15T08:54:12;102755.22;;;9.56;43.43
59493;BME280;45497;43.996;22.876;2023-02-15T08:56:40;102755.59;;;9.63;43.65
59493;BME280;45497;43.996;22.876;2023-02-15T08:59:07;102756.91;;;9.82;42.61
59493;BME280;45497;43.996;22.876;2023-02-15T09:01:36;102753.06;;;9.37;42.53
59493;BME280;45497;43.996;22.876;2023-02-15T09:04:05;102750.94;;;9.18;42.69
59493;BME280;45497;43.996;22.876;2023-02-15T09:06:31;102751.34;;;9.49;41.92
59493;BME280;45497;43.996;22.876;2023-02-15T09:08:57;102747.38;;;9.31;41.61
59493;BME280;45497;43.996;22.876;2023-02-15T09:11:32;102747.56;;;9.65;41.51
59493;BME280;45497;43.996;22.876;2023-02-15T09:14:07;102746.75;;;9.75;40.91
59493;BME280;45497;43.996;22.876;2023-02-15T09:16:35;102745.19;;;9.49;40.84
59493;BME280;45497;43.996;22.876;2023-02-15T09:19:02;102750.25;;;9.52;40.65
59493;BME280;45497;43.996;22.876;2023-02-15T09:21:30;102755.38;;;9.90;41.24
59493;BME280;45497;43.996;22.876;2023-02-15T09:24:01;102744.53;;;9.93;40.11
59493;BME280;45497;43.996;22.876;2023-02-15T09:26:29;102745.72;;;9.89;40.09
59493;BME280;45497;43.996;22.876;2023-02-15T09:28:57;102746.00;;;9.98;40.61
59493;BME280;45497;43.996;22.876;2023-02-15T09:31:28;102741.25;;;9.90;39.52
59493;BME280;45497;43.996;22.876;2023-02-15T09:33:55;102748.59;;;9.86;39.49
59493;BME280;45497;43.996;22.876;2023-02-15T09:39:01;102741.72;;;10.19;39.64
59493;BME280;45497;43.996;22.876;2023-02-15T09:56:06;102709.97;;;10.64;39.14
59493;BME280;45497;43.996;22.876;2023-02-15T10:17:48;102685.06;;;10.99;37.36
59493;BME280;45497;43.996;22.876;2023-02-15T10:23:40;102680.75;;;10.87;37.05
59493;BME280;45497;43.996;22.876;2023-02-15T10:26:40;102678.50;;;10.82;37.19
59493;BME280;45497;43.996;22.876;2023-02-15T10:29:21;102677.19;;;11.09;36.96
59493;BME280;45497;43.996;22.876;2023-02-15T10:32:03;102661.25;;;11.20;36.80
59493;BME280;45497;43.996;22.876;2023-02-15T10:34:46;102669.31;;;10.86;37.06
59493;BME280;45497;43.996;22.876;2023-02-15T10:40:13;102656.81;;;11.09;36.91
59493;BME280;45497;43.996;22.876;2023-02-15T10:43:26;102652.56;;;11.51;36.58
59493;BME280;45497;43.996;22.876;2023-02-15T10:46:03;102639.78;;;11.65;36.58
59493;BME280;45497;43.996;22.876;2023-02-15T10:51:10;102636.41;;;11.42;35.87
59493;BME280;45497;43.996;22.876;2023-02-15T10:54:07;102623.66;;;11.36;35.81
59493;BME280;45497;43.996;22.876;2023-02-15T11:00:36;102614.16;;;11.76;36.36
59493;BME280;45497;43.996;22.876;2023-02-15T11:07:47;102604.53;;;12.05;35.36
59493;BME280;45497;43.996;22.876;2023-02-15T11:10:37;102600.03;;;12.06;35.47
59493;BME280;45497;43.996;22.876;2023-02-15T11:13:16;102606.59;;;12.02;35.02
59493;BME280;45497;43.996;22.876;2023-02-15T11:15:48;102599.91;;;12.08;35.35
59493;BME280;45497;43.996;22.876;2023-02-15T11:18:27;102598.00;;;12.19;35.18
59493;BME280;45497;43.996;22.876;2023-02-15T11:23:42;102584.38;;;12.03;35.08
59493;BME280;45497;43.996;22.876;2023-02-15T11:29:00;102581.56;;;12.35;35.31
59493;BME280;45497;43.996;22.876;2023-02-15T11:31:46;102581.31;;;12.48;35.57
59493;BME280;45497;43.996;22.876;2023-02-15T11:34:39;102572.50;;;12.57;35.81
59493;BME280;45497;43.996;22.876;2023-02-15T11:37:10;102575.09;;;12.38;34.89
59493;BME280;45497;43.996;22.876;2023-02-15T11:39:37;102579.47;;;12.49;35.19
59493;BME280;45497;43.996;22.876;2023-02-15T11:42:23;102572.63;;;12.56;35.42
59493;BME280;45497;43.996;22.876;2023-02-15T11:45:18;102555.44;;;12.70;34.77
59493;BME280;45497;43.996;22.876;2023-02-15T11:47:45;102562.00;;;12.75;34.99
59493;BME280;45497;43.996;22.876;2023-02-15T11:50:16;102561.31;;;12.83;34.98
59493;BME280;45497;43.996;22.876;2023-02-15T11:52:43;102554.28;;;13.01;35.14
59493;BME280;45497;43.996;22.876;2023-02-15T11:55:28;102554.66;;;12.38;34.46
59493;BME280;45497;43.996;22.876;2023-02-15T12:00:42;102548.38;;;12.39;34.56
59493;BME280;45497;43.996;22.876;2023-02-15T12:03:28;102539.56;;;12.58;34.56
59493;BME280;45497;43.996;22.876;2023-02-15T12:06:01;102540.44;;;12.78;34.65
59493;BME280;45497;43.996;22.876;2023-02-15T12:08:40;102530.63;;;12.50;34.62
59493;BME280;45497;43.996;22.876;2023-02-15T12:11:09;102535.09;;;12.69;34.87
59493;BME280;45497;43.996;22.876;2023-02-15T12:14:04;102534.81;;;12.62;34.71
59493;BME280;45497;43.996;22.876;2023-02-15T12:16:39;102528.69;;;12.71;34.60
59493;BME280;45497;43.996;22.876;2023-02-15T12:19:32;102529.53;;;12.91;35.42
59493;BME280;45497;43.996;22.876;2023-02-15T12:21:58;102527.84;;;12.80;34.54
59493;BME280;45497;43.996;22.876;2023-02-15T12:24:37;102541.25;;;12.50;35.19
59493;BME280;45497;43.996;22.876;2023-02-15T12:29:44;102528.09;;;12.58;34.91
59493;BME280;45497;43.996;22.876;2023-02-15T12:32:18;102512.28;;;12.47;35.08
59493;BME280;45497;43.996;22.876;2023-02-15T12:34:45;102525.44;;;12.48;35.26
59493;BME280;45497;43.996;22.876;2023-02-15T12:37:24;102518.44;;;12.67;35.02
59493;BME280;45497;43.996;22.876;2023-02-15T12:40:04;102512.44;;;12.84;34.73
59493;BME280;45497;43.996;22.876;2023-02-15T12:42:43;102510.75;;;12.93;34.54
59493;BME280;45497;43.996;22.876;2023-02-15T12:45:32;102525.00;;;12.53;35.26
59493;BME280;45497;43.996;22.876;2023-02-15T12:48:14;102515.22;;;12.73;34.58
59493;BME280;45497;43.996;22.876;2023-02-15T12:53:18;102508.06;;;13.03;34.54
59493;BME280;45497;43.996;22.876;2023-02-15T12:55:57;102508.91;;;12.84;34.57
59493;BME280;45497;43.996;22.876;2023-02-15T12:58:30;102510.31;;;12.49;35.01
59493;BME280;45497;43.996;22.876;2023-02-15T13:03:33;102511.16;;;12.59;35.09
59493;BME280;45497;43.996;22.876;2023-02-15T13:06:00;102504.31;;;12.66;35.24
59493;BME280;45497;43.996;22.876;2023-02-15T13:10:56;102512.28;;;12.56;35.36
59493;BME280;45497;43.996;22.876;2023-02-15T13:13:25;102508.34;;;12.51;35.29
59493;BME280;45497;43.996;22.876;2023-02-15T13:15:54;102512.44;;;12.65;35.14
59493;BME280;45497;43.996;22.876;2023-02-15T13:21:14;102512.56;;;12.82;34.71
59493;BME280;45497;43.996;22.876;2023-02-15T13:23:45;102518.16;;;12.99;34.79
59493;BME280;45497;43.996;22.876;2023-02-15T13:26:23;102513.41;;;12.73;34.66
59493;BME280;45497;43.996;22.876;2023-02-15T13:28:54;102507.91;;;12.46;34.91
59493;BME280;45497;43.996;22.876;2023-02-15T13:31:23;102509.75;;;12.55;35.56
59493;BME280;45497;43.996;22.876;2023-02-15T13:36:45;102518.28;;;12.58;35.20
59493;BME280;45497;43.996;22.876;2023-02-15T13:39:25;102507.66;;;12.68;35.22
59493;BME280;45497;43.996;22.876;2023-02-15T13:45:08;102512.28;;;12.66;35.42
59493;BME280;45497;43.996;22.876;2023-02-15T13:47:46;102503.59;;;12.93;34.98
59493;BME280;45497;43.996;22.876;2023-02-15T14:00:47;102519.00;;;12.70;35.89
59493;BME280;45497;43.996;22.876;2023-02-15T14:06:05;102507.13;;;12.84;35.30
59493;BME280;45497;43.996;22.876;2023-02-15T14:08:44;102512.16;;;12.97;35.19
59493;BME280;45497;43.996;22.876;2023-02-15T14:11:54;102510.72;;;13.03;35.56
59493;BME280;45497;43.996;22.876;2023-02-15T14:14:28;102507.09;;;12.74;35.03
59493;BME280;45497;43.996;22.876;2023-02-15T14:17:35;102514.69;;;12.79;35.07
59493;BME280;45497;43.996;22.876;2023-02-15T14:23:07;102520.97;;;12.88;34.84
59493;BME280;45497;43.996;22.876;2023-02-15T14:25:51;102506.09;;;12.66;34.40
59493;BME280;45497;43.996;22.876;2023-02-15T14:28:27;102531.19;;;12.63;34.41
59493;BME280;45497;43.996;22.876;2023-02-15T14:30:55;102521.41;;;12.73;34.42
59493;BME280;45497;43.996;22.876;2023-02-15T14:33:32;102526.72;;;12.83;34.58
59493;BME280;45497;43.996;22.876;2023-02-15T14:36:00;102525.59;;;12.76;34.48
59493;BME280;45497;43.996;22.876;2023-02-15T14:41:39;102510.44;;;12.76;34.45
59493;BME280;45497;43.996;22.876;2023-02-15T14:44:21;102513.25;;;12.65;34.89
59493;BME280;45497;43.996;22.876;2023-02-15T14:49:36;102517.75;;;12.74;34.99
59493;BME280;45497;43.996;22.876;2023-02-15T14:52:07;102517.03;;;12.72;35.11
59493;BME280;45497;43.996;22.876;2023-02-15T15:02:09;102514.50;;;12.51;34.81
59493;BME280;45497;43.996;22.876;2023-02-15T15:04:43;102517.16;;;12.41;35.27
59493;BME280;45497;43.996;22.876;2023-02-15T15:07:27;102529.91;;;12.38;35.34
59493;BME280;45497;43.996;22.876;2023-02-15T15:14:52;102533.38;;;12.38;35.31
59493;BME280;45497;43.996;22.876;2023-02-15T15:20:14;102532.69;;;12.27;35.64
59493;BME280;45497;43.996;22.876;2023-02-15T15:25:50;102528.94;;;12.39;35.85
59493;BME280;45497;43.996;22.876;2023-02-15T15:44:59;102552.41;;;11.93;36.40
59493;BME280;45497;43.996;22.876;2023-02-15T15:47:47;102547.38;;;11.90;36.76
59493;BME280;45497;43.996;22.876;2023-02-15T15:50:18;102544.06;;;11.77;36.59
59493;BME280;45497;43.996;22.876;2023-02-15T15:52:50;102546.97;;;11.74;36.89
59493;BME280;45497;43.996;22.876;2023-02-15T15:55:23;102539.44;;;11.69;37.02